sensor_id;sensor_type;location;lat;lon;timestamp;P1;durP1;ratioP1;P2;durP2;ratioP2
57561;SDS011;43397;51.530;5.974;2023-03-14T00:01:07;7.10;;;2.42;;
57561;SDS011;43397;51.530;5.974;2023-03-14T00:03:34;9.15;;;2.08;;
57561;SDS011;43397;51.530;5.974;2023-03-14T00:06:01;9.55;;;2.30;;
57561;SDS011;43397;51.530;5.974;2023-03-14T00:08:27;6.90;;;1.98;;
57561;SDS011;43397;51.530;5.974;2023-03-14T00:10:54;7.75;;;2.05;;
57561;SDS011;43397;51.530;5.974;2023-03-14T00:13:20;6.35;;;2.40;;
57561;SDS011;43397;51.530;5.974;2023-03-14T00:15:45;8.70;;;2.40;;
57561;SDS011;43397;51.530;5.974;2023-03-14T00:18:11;7.35;;;2.33;;
57561;SDS011;43397;51.530;5.974;2023-03-14T00:20:37;5.63;;;2.08;;
57561;SDS011;43397;51.530;5.974;2023-03-14T00:23:02;7.40;;;2.15;;
57561;SDS011;43397;51.530;5.974;2023-03-14T00:25:28;8.73;;;2.15;;
57561;SDS011;43397;51.530;5.974;2023-03-14T00:27:55;3.80;;;1.58;;
57561;SDS011;43397;51.530;5.974;2023-03-14T00:30:21;7.70;;;1.73;;
57561;SDS011;43397;51.530;5.974;2023-03-14T00:32:46;8.95;;;2.13;;
57561;SDS011;43397;51.530;5.974;2023-03-14T00:35:12;5.85;;;2.30;;
57561;SDS011;43397;51.530;5.974;2023-03-14T00:37:38;6.80;;;2.80;;
57561;SDS011;43397;51.530;5.974;2023-03-14T00:40:04;8.00;;;1.98;;
57561;SDS011;43397;51.530;5.974;2023-03-14T00:42:30;9.48;;;2.08;;
57561;SDS011;43397;51.530;5.974;2023-03-14T00:44:57;5.50;;;1.40;;
57561;SDS011;43397;51.530;5.974;2023-03-14T00:47:23;11.65;;;2.60;;
57561;SDS011;43397;51.530;5.974;2023-03-14T00:49:49;8.35;;;1.88;;
57561;SDS011;43397;51.530;5.974;2023-03-14T00:52:14;6.10;;;1.73;;
57561;SDS011;43397;51.530;5.974;2023-03-14T00:54:40;6.93;;;1.98;;
57561;SDS011;43397;51.530;5.974;2023-03-14T00:57:06;7.13;;;2.85;;
57561;SDS011;43397;51.530;5.974;2023-03-14T00:59:31;4.05;;;1.60;;
57561;SDS011;43397;51.530;5.974;2023-03-14T01:01:58;6.78;;;1.35;;
57561;SDS011;43397;51.530;5.974;2023-03-14T01:04:24;6.00;;;1.60;;
57561;SDS011;43397;51.530;5.974;2023-03-14T01:06:50;6.43;;;1.60;;
57561;SDS011;43397;51.530;5.974;2023-03-14T01:09:15;5.50;;;1.45;;
57561;SDS011;43397;51.530;5.974;2023-03-14T01:11:41;5.75;;;1.30;;
57561;SDS011;43397;51.530;5.974;2023-03-14T01:14:07;7.05;;;1.45;;
57561;SDS011;43397;51.530;5.974;2023-03-14T01:16:33;5.80;;;1.30;;
57561;SDS011;43397;51.530;5.974;2023-03-14T01:19:01;7.15;;;1.77;;
57561;SDS011;43397;51.530;5.974;2023-03-14T01:21:27;5.30;;;1.27;;
57561;SDS011;43397;51.530;5.974;2023-03-14T01:23:55;7.78;;;1.50;;
57561;SDS011;43397;51.530;5.974;2023-03-14T01:26:23;6.35;;;1.27;;
57561;SDS011;43397;51.530;5.974;2023-03-14T01:28:52;6.47;;;1.70;;
57561;SDS011;43397;51.530;5.974;2023-03-14T01:31:18;4.53;;;1.33;;
57561;SDS011;43397;51.530;5.974;2023-03-14T01:36:50;5.28;;;1.42;;
57561;SDS011;43397;51.530;5.974;2023-03-14T01:39:16;6.35;;;1.83;;
57561;SDS011;43397;51.530;5.974;2023-03-14T01:41:41;7.85;;;1.85;;
57561;SDS011;43397;51.530;5.974;2023-03-14T01:44:08;6.13;;;1.20;;
57561;SDS011;43397;51.530;5.974;2023-03-14T01:46:36;4.95;;;1.55;;
57561;SDS011;43397;51.530;5.974;2023-03-14T01:49:04;7.63;;;2.20;;
57561;SDS011;43397;51.530;5.974;2023-03-14T01:51:37;6.75;;;1.40;;
57561;SDS011;43397;51.530;5.974;2023-03-14T01:54:09;7.40;;;1.95;;
57561;SDS011;43397;51.530;5.974;2023-03-14T01:56:38;7.72;;;2.08;;
57561;SDS011;43397;51.530;5.974;2023-03-14T01:59:06;5.63;;;1.50;;
57561;SDS011;43397;51.530;5.974;2023-03-14T02:01:33;6.13;;;1.70;;
57561;SDS011;43397;51.530;5.974;2023-03-14T02:04:01;4.85;;;1.30;;
57561;SDS011;43397;51.530;5.974;2023-03-14T02:06:32;5.35;;;1.50;;
57561;SDS011;43397;51.530;5.974;2023-03-14T02:09:05;6.15;;;1.48;;
57561;SDS011;43397;51.530;5.974;2023-03-14T02:11:31;9.57;;;1.42;;
57561;SDS011;43397;51.530;5.974;2023-03-14T02:13:57;5.25;;;1.50;;
57561;SDS011;43397;51.530;5.974;2023-03-14T02:16:24;5.13;;;2.00;;
57561;SDS011;43397;51.530;5.974;2023-03-14T02:18:50;5.40;;;1.40;;
57561;SDS011;43397;51.530;5.974;2023-03-14T02:21:17;6.38;;;2.15;;
57561;SDS011;43397;51.530;5.974;2023-03-14T02:23:53;9.32;;;1.70;;
57561;SDS011;43397;51.530;5.974;2023-03-14T02:26:31;7.68;;;1.88;;
57561;SDS011;43397;51.530;5.974;2023-03-14T02:29:05;5.55;;;1.65;;
57561;SDS011;43397;51.530;5.974;2023-03-14T02:31:30;9.63;;;1.85;;
57561;SDS011;43397;51.530;5.974;2023-03-14T02:33:56;6.40;;;1.48;;
57561;SDS011;43397;51.530;5.974;2023-03-14T02:36:23;7.70;;;1.88;;
57561;SDS011;43397;51.530;5.974;2023-03-14T02:38:50;4.60;;;1.38;;
57561;SDS011;43397;51.530;5.974;2023-03-14T02:41:20;6.70;;;2.08;;
57561;SDS011;43397;51.530;5.974;2023-03-14T02:43:46;8.90;;;1.70;;
57561;SDS011;43397;51.530;5.974;2023-03-14T02:46:14;10.75;;;1.90;;
57561;SDS011;43397;51.530;5.974;2023-03-14T02:48:43;8.02;;;1.90;;
57561;SDS011;43397;51.530;5.974;2023-03-14T02:51:13;5.82;;;1.80;;
57561;SDS011;43397;51.530;5.974;2023-03-14T02:53:40;6.88;;;2.00;;
57561;SDS011;43397;51.530;5.974;2023-03-14T02:56:06;6.35;;;1.65;;
57561;SDS011;43397;51.530;5.974;2023-03-14T02:58:33;6.57;;;2.15;;
57561;SDS011;43397;51.530;5.974;2023-03-14T03:00:58;7.05;;;2.28;;
57561;SDS011;43397;51.530;5.974;2023-03-14T03:03:25;5.70;;;1.40;;
57561;SDS011;43397;51.530;5.974;2023-03-14T03:05:52;9.98;;;1.90;;
57561;SDS011;43397;51.530;5.974;2023-03-14T03:08:19;6.55;;;1.98;;
57561;SDS011;43397;51.530;5.974;2023-03-14T03:10:45;7.57;;;1.98;;
57561;SDS011;43397;51.530;5.974;2023-03-14T03:13:11;8.52;;;1.95;;
57561;SDS011;43397;51.530;5.974;2023-03-14T03:15:36;5.25;;;1.80;;
57561;SDS011;43397;51.530;5.974;2023-03-14T03:18:02;7.65;;;2.00;;
57561;SDS011;43397;51.530;5.974;2023-03-14T03:20:29;10.43;;;2.40;;
57561;SDS011;43397;51.530;5.974;2023-03-14T03:22:55;9.15;;;1.77;;
57561;SDS011;43397;51.530;5.974;2023-03-14T03:25:21;7.85;;;1.55;;
57561;SDS011;43397;51.530;5.974;2023-03-14T03:27:47;5.47;;;1.65;;
57561;SDS011;43397;51.530;5.974;2023-03-14T03:30:13;10.40;;;2.00;;
57561;SDS011;43397;51.530;5.974;2023-03-14T03:32:39;9.73;;;2.00;;
57561;SDS011;43397;51.530;5.974;2023-03-14T03:35:05;6.35;;;1.75;;
57561;SDS011;43397;51.530;5.974;2023-03-14T03:37:33;8.48;;;2.85;;
57561;SDS011;43397;51.530;5.974;2023-03-14T03:39:59;5.18;;;1.63;;
57561;SDS011;43397;51.530;5.974;2023-03-14T03:42:25;9.75;;;2.17;;
57561;SDS011;43397;51.530;5.974;2023-03-14T03:44:51;5.15;;;1.27;;
57561;SDS011;43397;51.530;5.974;2023-03-14T03:47:17;4.07;;;1.25;;
57561;SDS011;43397;51.530;5.974;2023-03-14T03:49:43;5.82;;;1.60;;
57561;SDS011;43397;51.530;5.974;2023-03-14T03:52:08;5.03;;;1.40;;
57561;SDS011;43397;51.530;5.974;2023-03-14T03:54:35;7.00;;;1.63;;
57561;SDS011;43397;51.530;5.974;2023-03-14T03:57:01;7.75;;;1.70;;
57561;SDS011;43397;51.530;5.974;2023-03-14T03:59:27;6.15;;;1.42;;
57561;SDS011;43397;51.530;5.974;2023-03-14T04:01:53;7.32;;;1.58;;
57561;SDS011;43397;51.530;5.974;2023-03-14T04:04:19;8.18;;;1.65;;
57561;SDS011;43397;51.530;5.974;2023-03-14T04:06:44;8.80;;;1.40;;
57561;SDS011;43397;51.530;5.974;2023-03-14T04:09:10;5.13;;;1.40;;
57561;SDS011;43397;51.530;5.974;2023-03-14T04:11:38;9.43;;;1.55;;
57561;SDS011;43397;51.530;5.974;2023-03-14T04:14:04;4.13;;;0.95;;
57561;SDS011;43397;51.530;5.974;2023-03-14T04:16:30;9.32;;;1.92;;
57561;SDS011;43397;51.530;5.974;2023-03-14T04:18:56;5.90;;;1.55;;
57561;SDS011;43397;51.530;5.974;2023-03-14T04:21:22;4.85;;;1.02;;
57561;SDS011;43397;51.530;5.974;2023-03-14T04:23:48;4.72;;;1.20;;
57561;SDS011;43397;51.530;5.974;2023-03-14T04:26:14;5.43;;;1.50;;
57561;SDS011;43397;51.530;5.974;2023-03-14T04:28:41;5.25;;;1.02;;
57561;SDS011;43397;51.530;5.974;2023-03-14T04:31:07;4.88;;;1.27;;
57561;SDS011;43397;51.530;5.974;2023-03-14T04:33:33;1.85;;;0.68;;
57561;SDS011;43397;51.530;5.974;2023-03-14T04:35:59;2.47;;;0.80;;
57561;SDS011;43397;51.530;5.974;2023-03-14T04:38:25;4.82;;;0.90;;
57561;SDS011;43397;51.530;5.974;2023-03-14T04:40:50;3.20;;;0.80;;
57561;SDS011;43397;51.530;5.974;2023-03-14T04:43:16;4.28;;;0.80;;
57561;SDS011;43397;51.530;5.974;2023-03-14T04:45:43;1.58;;;0.73;;
57561;SDS011;43397;51.530;5.974;2023-03-14T04:48:09;5.45;;;1.00;;
57561;SDS011;43397;51.530;5.974;2023-03-14T04:50:35;1.85;;;0.70;;
57561;SDS011;43397;51.530;5.974;2023-03-14T04:53:00;3.17;;;0.95;;
57561;SDS011;43397;51.530;5.974;2023-03-14T04:55:26;4.10;;;1.00;;
57561;SDS011;43397;51.530;5.974;2023-03-14T04:57:52;2.53;;;0.85;;
57561;SDS011;43397;51.530;5.974;2023-03-14T05:00:18;2.55;;;0.90;;
57561;SDS011;43397;51.530;5.974;2023-03-14T05:02:45;5.38;;;0.68;;
57561;SDS011;43397;51.530;5.974;2023-03-14T05:05:10;6.80;;;1.10;;
57561;SDS011;43397;51.530;5.974;2023-03-14T05:07:36;3.67;;;1.10;;
57561;SDS011;43397;51.530;5.974;2023-03-14T05:10:02;4.65;;;1.33;;
57561;SDS011;43397;51.530;5.974;2023-03-14T05:12:28;3.72;;;1.02;;
57561;SDS011;43397;51.530;5.974;2023-03-14T05:14:54;4.13;;;1.20;;
57561;SDS011;43397;51.530;5.974;2023-03-14T05:17:19;5.13;;;1.20;;
57561;SDS011;43397;51.530;5.974;2023-03-14T05:19:46;9.38;;;2.03;;
57561;SDS011;43397;51.530;5.974;2023-03-14T05:22:12;4.05;;;1.60;;
57561;SDS011;43397;51.530;5.974;2023-03-14T05:24:38;4.95;;;1.67;;
57561;SDS011;43397;51.530;5.974;2023-03-14T05:27:04;5.35;;;1.40;;
57561;SDS011;43397;51.530;5.974;2023-03-14T05:29:30;4.38;;;1.58;;
57561;SDS011;43397;51.530;5.974;2023-03-14T05:31:56;4.35;;;1.60;;
57561;SDS011;43397;51.530;5.974;2023-03-14T05:34:21;5.63;;;1.83;;
57561;SDS011;43397;51.530;5.974;2023-03-14T05:36:48;6.45;;;2.00;;
57561;SDS011;43397;51.530;5.974;2023-03-14T05:39:14;4.10;;;1.73;;
57561;SDS011;43397;51.530;5.974;2023-03-14T05:41:40;6.78;;;2.20;;
57561;SDS011;43397;51.530;5.974;2023-03-14T05:44:05;6.90;;;2.40;;
57561;SDS011;43397;51.530;5.974;2023-03-14T05:46:31;5.68;;;2.13;;
57561;SDS011;43397;51.530;5.974;2023-03-14T05:48:57;7.45;;;2.08;;
57561;SDS011;43397;51.530;5.974;2023-03-14T05:51:22;6.10;;;2.67;;
57561;SDS011;43397;51.530;5.974;2023-03-14T05:53:50;6.82;;;2.42;;
57561;SDS011;43397;51.530;5.974;2023-03-14T05:56:15;7.68;;;2.75;;
57561;SDS011;43397;51.530;5.974;2023-03-14T05:58:41;6.40;;;2.60;;
57561;SDS011;43397;51.530;5.974;2023-03-14T06:01:07;9.35;;;3.22;;
57561;SDS011;43397;51.530;5.974;2023-03-14T06:03:33;9.00;;;2.53;;
57561;SDS011;43397;51.530;5.974;2023-03-14T06:05:59;8.05;;;3.13;;
57561;SDS011;43397;51.530;5.974;2023-03-14T06:08:24;7.22;;;3.67;;
57561;SDS011;43397;51.530;5.974;2023-03-14T06:10:51;8.88;;;3.03;;
57561;SDS011;43397;51.530;5.974;2023-03-14T06:13:18;10.80;;;3.25;;
57561;SDS011;43397;51.530;5.974;2023-03-14T06:15:44;6.40;;;3.45;;
57561;SDS011;43397;51.530;5.974;2023-03-14T06:18:10;9.18;;;3.75;;
57561;SDS011;43397;51.530;5.974;2023-03-14T06:20:36;9.70;;;3.95;;
57561;SDS011;43397;51.530;5.974;2023-03-14T06:23:02;9.68;;;4.13;;
57561;SDS011;43397;51.530;5.974;2023-03-14T06:25:28;7.43;;;4.32;;
57561;SDS011;43397;51.530;5.974;2023-03-14T06:27:55;9.45;;;4.53;;
57561;SDS011;43397;51.530;5.974;2023-03-14T06:30:20;7.47;;;3.95;;
57561;SDS011;43397;51.530;5.974;2023-03-14T06:32:46;10.93;;;3.92;;
57561;SDS011;43397;51.530;5.974;2023-03-14T06:35:12;9.80;;;4.22;;
57561;SDS011;43397;51.530;5.974;2023-03-14T06:37:37;10.55;;;4.07;;
57561;SDS011;43397;51.530;5.974;2023-03-14T06:40:03;9.05;;;4.15;;
57561;SDS011;43397;51.530;5.974;2023-03-14T06:42:30;7.82;;;3.78;;
57561;SDS011;43397;51.530;5.974;2023-03-14T06:44:57;8.90;;;3.92;;
57561;SDS011;43397;51.530;5.974;2023-03-14T06:47:22;8.48;;;3.72;;
57561;SDS011;43397;51.530;5.974;2023-03-14T06:49:48;8.02;;;3.53;;
57561;SDS011;43397;51.530;5.974;2023-03-14T06:52:14;8.43;;;3.92;;
57561;SDS011;43397;51.530;5.974;2023-03-14T06:54:39;8.90;;;3.75;;
57561;SDS011;43397;51.530;5.974;2023-03-14T06:57:05;7.82;;;3.45;;
57561;SDS011;43397;51.530;5.974;2023-03-14T06:59:31;11.77;;;4.07;;
57561;SDS011;43397;51.530;5.974;2023-03-14T07:01:58;7.07;;;4.05;;
57561;SDS011;43397;51.530;5.974;2023-03-14T07:04:23;8.25;;;3.47;;
57561;SDS011;43397;51.530;5.974;2023-03-14T07:06:49;8.50;;;3.80;;
57561;SDS011;43397;51.530;5.974;2023-03-14T07:09:15;8.73;;;3.70;;
57561;SDS011;43397;51.530;5.974;2023-03-14T07:11:41;8.18;;;3.88;;
57561;SDS011;43397;51.530;5.974;2023-03-14T07:14:06;7.38;;;4.00;;
57561;SDS011;43397;51.530;5.974;2023-03-14T07:16:32;8.50;;;4.22;;
57561;SDS011;43397;51.530;5.974;2023-03-14T07:18:59;9.85;;;4.65;;
57561;SDS011;43397;51.530;5.974;2023-03-14T07:21:26;10.15;;;4.63;;
57561;SDS011;43397;51.530;5.974;2023-03-14T07:23:51;9.57;;;4.70;;
57561;SDS011;43397;51.530;5.974;2023-03-14T07:26:17;10.93;;;5.00;;
57561;SDS011;43397;51.530;5.974;2023-03-14T07:28:43;9.90;;;4.60;;
57561;SDS011;43397;51.530;5.974;2023-03-14T07:31:09;9.73;;;4.40;;
57561;SDS011;43397;51.530;5.974;2023-03-14T07:33:35;6.97;;;3.85;;
57561;SDS011;43397;51.530;5.974;2023-03-14T07:36:02;6.97;;;3.70;;
57561;SDS011;43397;51.530;5.974;2023-03-14T07:38:28;7.35;;;3.88;;
57561;SDS011;43397;51.530;5.974;2023-03-14T07:40:57;9.48;;;4.03;;
57561;SDS011;43397;51.530;5.974;2023-03-14T07:43:23;7.88;;;3.95;;
57561;SDS011;43397;51.530;5.974;2023-03-14T07:45:49;10.98;;;5.35;;
57561;SDS011;43397;51.530;5.974;2023-03-14T07:48:14;9.23;;;4.97;;
57561;SDS011;43397;51.530;5.974;2023-03-14T07:50:40;7.63;;;4.13;;
57561;SDS011;43397;51.530;5.974;2023-03-14T07:53:07;8.15;;;4.40;;
57561;SDS011;43397;51.530;5.974;2023-03-14T07:55:33;7.05;;;4.35;;
57561;SDS011;43397;51.530;5.974;2023-03-14T07:57:58;9.57;;;4.88;;
57561;SDS011;43397;51.530;5.974;2023-03-14T08:00:24;9.00;;;5.68;;
57561;SDS011;43397;51.530;5.974;2023-03-14T08:02:50;8.73;;;5.28;;
57561;SDS011;43397;51.530;5.974;2023-03-14T08:05:16;10.60;;;5.25;;
57561;SDS011;43397;51.530;5.974;2023-03-14T08:07:41;10.32;;;4.72;;
57561;SDS011;43397;51.530;5.974;2023-03-14T08:10:09;4.00;;;1.75;;
57561;SDS011;43397;51.530;5.974;2023-03-14T08:12:36;6.00;;;1.93;;
57561;SDS011;43397;51.530;5.974;2023-03-14T08:15:01;3.05;;;1.45;;
57561;SDS011;43397;51.530;5.974;2023-03-14T08:17:27;4.60;;;1.23;;
57561;SDS011;43397;51.530;5.974;2023-03-14T08:19:53;2.25;;;0.93;;
57561;SDS011;43397;51.530;5.974;2023-03-14T08:22:19;2.28;;;1.00;;
57561;SDS011;43397;51.530;5.974;2023-03-14T08:24:44;2.22;;;1.00;;
57561;SDS011;43397;51.530;5.974;2023-03-14T08:27:12;2.85;;;1.60;;
57561;SDS011;43397;51.530;5.974;2023-03-14T08:29:37;5.90;;;1.27;;
57561;SDS011;43397;51.530;5.974;2023-03-14T08:32:03;3.13;;;1.10;;
57561;SDS011;43397;51.530;5.974;2023-03-14T08:34:29;4.13;;;1.20;;
57561;SDS011;43397;51.530;5.974;2023-03-14T08:36:55;4.88;;;1.60;;
57561;SDS011;43397;51.530;5.974;2023-03-14T08:39:20;4.13;;;1.52;;
57561;SDS011;43397;51.530;5.974;2023-03-14T08:41:46;4.45;;;1.70;;
57561;SDS011;43397;51.530;5.974;2023-03-14T08:44:13;3.65;;;1.50;;
57561;SDS011;43397;51.530;5.974;2023-03-14T08:46:39;4.88;;;1.95;;
57561;SDS011;43397;51.530;5.974;2023-03-14T08:49:04;5.40;;;2.15;;
57561;SDS011;43397;51.530;5.974;2023-03-14T08:51:30;6.40;;;2.55;;
57561;SDS011;43397;51.530;5.974;2023-03-14T08:53:56;5.22;;;2.50;;
57561;SDS011;43397;51.530;5.974;2023-03-14T08:56:21;5.00;;;2.60;;
57561;SDS011;43397;51.530;5.974;2023-03-14T08:58:47;5.07;;;2.72;;
57561;SDS011;43397;51.530;5.974;2023-03-14T09:01:14;4.88;;;2.53;;
57561;SDS011;43397;51.530;5.974;2023-03-14T09:03:40;5.63;;;2.92;;
57561;SDS011;43397;51.530;5.974;2023-03-14T09:06:06;5.70;;;3.17;;
57561;SDS011;43397;51.530;5.974;2023-03-14T09:08:34;7.25;;;2.83;;
57561;SDS011;43397;51.530;5.974;2023-03-14T09:11:00;7.22;;;3.13;;
57561;SDS011;43397;51.530;5.974;2023-03-14T09:13:26;7.43;;;2.63;;
57561;SDS011;43397;51.530;5.974;2023-03-14T09:15:51;6.03;;;2.40;;
57561;SDS011;43397;51.530;5.974;2023-03-14T09:18:19;5.25;;;2.65;;
57561;SDS011;43397;51.530;5.974;2023-03-14T09:20:45;6.63;;;3.03;;
57561;SDS011;43397;51.530;5.974;2023-03-14T09:23:10;5.65;;;2.90;;
57561;SDS011;43397;51.530;5.974;2023-03-14T09:25:36;7.20;;;3.35;;
57561;SDS011;43397;51.530;5.974;2023-03-14T09:28:02;5.75;;;2.55;;
57561;SDS011;43397;51.530;5.974;2023-03-14T09:30:28;3.90;;;1.85;;
57561;SDS011;43397;51.530;5.974;2023-03-14T09:32:53;4.25;;;2.15;;
57561;SDS011;43397;51.530;5.974;2023-03-14T09:35:20;6.82;;;2.15;;
57561;SDS011;43397;51.530;5.974;2023-03-14T09:37:46;4.13;;;1.58;;
57561;SDS011;43397;51.530;5.974;2023-03-14T09:40:12;5.60;;;1.98;;
57561;SDS011;43397;51.530;5.974;2023-03-14T09:42:38;4.90;;;1.73;;
57561;SDS011;43397;51.530;5.974;2023-03-14T09:45:05;5.57;;;2.10;;
57561;SDS011;43397;51.530;5.974;2023-03-14T09:47:35;7.22;;;2.22;;
57561;SDS011;43397;51.530;5.974;2023-03-14T09:50:01;4.55;;;2.05;;
57561;SDS011;43397;51.530;5.974;2023-03-14T09:52:30;5.18;;;1.85;;
57561;SDS011;43397;51.530;5.974;2023-03-14T09:54:57;4.05;;;1.23;;
57561;SDS011;43397;51.530;5.974;2023-03-14T09:57:32;6.82;;;2.70;;
57561;SDS011;43397;51.530;5.974;2023-03-14T10:00:02;3.17;;;1.63;;
57561;SDS011;43397;51.530;5.974;2023-03-14T10:02:32;4.53;;;1.70;;
57561;SDS011;43397;51.530;5.974;2023-03-14T10:04:59;4.40;;;1.60;;
57561;SDS011;43397;51.530;5.974;2023-03-14T10:07:27;3.60;;;1.58;;
57561;SDS011;43397;51.530;5.974;2023-03-14T10:09:56;5.43;;;1.60;;
57561;SDS011;43397;51.530;5.974;2023-03-14T10:12:29;5.53;;;1.63;;
57561;SDS011;43397;51.530;5.974;2023-03-14T10:14:56;6.10;;;2.67;;
57561;SDS011;43397;51.530;5.974;2023-03-14T10:17:21;6.50;;;1.65;;
57561;SDS011;43397;51.530;5.974;2023-03-14T10:19:51;6.07;;;1.73;;
57561;SDS011;43397;51.530;5.974;2023-03-14T10:22:19;4.03;;;1.80;;
57561;SDS011;43397;51.530;5.974;2023-03-14T10:24:47;4.82;;;1.60;;
57561;SDS011;43397;51.530;5.974;2023-03-14T10:27:18;7.35;;;1.42;;
57561;SDS011;43397;51.530;5.974;2023-03-14T10:29:51;3.60;;;1.63;;
57561;SDS011;43397;51.530;5.974;2023-03-14T10:32:19;5.35;;;1.60;;
57561;SDS011;43397;51.530;5.974;2023-03-14T10:34:46;3.05;;;1.50;;
57561;SDS011;43397;51.530;5.974;2023-03-14T10:37:31;5.57;;;1.60;;
57561;SDS011;43397;51.530;5.974;2023-03-14T10:39:59;5.15;;;2.10;;
57561;SDS011;43397;51.530;5.974;2023-03-14T10:42:27;23.10;;;9.60;;
57561;SDS011;43397;51.530;5.974;2023-03-14T10:44:54;4.68;;;2.80;;
57561;SDS011;43397;51.530;5.974;2023-03-14T10:47:22;4.38;;;1.77;;
57561;SDS011;43397;51.530;5.974;2023-03-14T10:49:49;7.15;;;1.48;;
57561;SDS011;43397;51.530;5.974;2023-03-14T10:52:18;5.18;;;1.42;;
57561;SDS011;43397;51.530;5.974;2023-03-14T10:54:46;4.55;;;1.92;;
57561;SDS011;43397;51.530;5.974;2023-03-14T10:57:14;8.82;;;3.53;;
57561;SDS011;43397;51.530;5.974;2023-03-14T10:59:41;5.38;;;1.25;;
57561;SDS011;43397;51.530;5.974;2023-03-14T11:02:13;4.55;;;1.80;;
57561;SDS011;43397;51.530;5.974;2023-03-14T11:04:55;6.00;;;2.13;;
57561;SDS011;43397;51.530;5.974;2023-03-14T11:07:29;6.40;;;1.58;;
57561;SDS011;43397;51.530;5.974;2023-03-14T11:10:02;9.25;;;3.97;;
57561;SDS011;43397;51.530;5.974;2023-03-14T11:12:41;8.63;;;2.03;;
57561;SDS011;43397;51.530;5.974;2023-03-14T11:15:16;10.23;;;3.65;;
57561;SDS011;43397;51.530;5.974;2023-03-14T11:17:50;9.57;;;2.00;;
57561;SDS011;43397;51.530;5.974;2023-03-14T11:20:26;10.07;;;3.67;;
57561;SDS011;43397;51.530;5.974;2023-03-14T11:22:59;7.25;;;2.25;;
57561;SDS011;43397;51.530;5.974;2023-03-14T11:25:27;7.95;;;1.80;;
57561;SDS011;43397;51.530;5.974;2023-03-14T11:28:01;11.52;;;2.55;;
57561;SDS011;43397;51.530;5.974;2023-03-14T11:30:35;9.68;;;2.13;;
57561;SDS011;43397;51.530;5.974;2023-03-14T11:33:08;9.27;;;2.30;;
57561;SDS011;43397;51.530;5.974;2023-03-14T11:35:41;16.80;;;2.58;;
57561;SDS011;43397;51.530;5.974;2023-03-14T11:38:14;11.50;;;2.40;;
57561;SDS011;43397;51.530;5.974;2023-03-14T11:40:49;11.38;;;2.03;;
57561;SDS011;43397;51.530;5.974;2023-03-14T11:43:20;14.57;;;3.22;;
57561;SDS011;43397;51.530;5.974;2023-03-14T11:45:51;13.05;;;2.30;;
57561;SDS011;43397;51.530;5.974;2023-03-14T11:48:24;12.85;;;2.08;;
57561;SDS011;43397;51.530;5.974;2023-03-14T11:50:55;10.35;;;3.67;;
57561;SDS011;43397;51.530;5.974;2023-03-14T11:53:28;9.00;;;2.10;;
57561;SDS011;43397;51.530;5.974;2023-03-14T11:56:01;6.95;;;1.63;;
57561;SDS011;43397;51.530;5.974;2023-03-14T11:58:29;8.63;;;2.40;;
57561;SDS011;43397;51.530;5.974;2023-03-14T12:01:00;11.57;;;2.08;;
57561;SDS011;43397;51.530;5.974;2023-03-14T12:03:34;11.20;;;2.53;;
57561;SDS011;43397;51.530;5.974;2023-03-14T12:06:05;11.07;;;2.35;;
57561;SDS011;43397;51.530;5.974;2023-03-14T12:08:43;11.93;;;2.45;;
57561;SDS011;43397;51.530;5.974;2023-03-14T12:11:14;13.20;;;2.58;;
57561;SDS011;43397;51.530;5.974;2023-03-14T12:13:47;16.38;;;2.83;;
57561;SDS011;43397;51.530;5.974;2023-03-14T12:16:26;13.05;;;2.92;;
57561;SDS011;43397;51.530;5.974;2023-03-14T12:18:57;16.85;;;3.30;;
57561;SDS011;43397;51.530;5.974;2023-03-14T12:21:44;13.65;;;2.70;;
57561;SDS011;43397;51.530;5.974;2023-03-14T12:24:16;13.43;;;2.70;;
57561;SDS011;43397;51.530;5.974;2023-03-14T12:26:48;18.33;;;3.33;;
57561;SDS011;43397;51.530;5.974;2023-03-14T12:29:27;11.68;;;2.45;;
57561;SDS011;43397;51.530;5.974;2023-03-14T12:32:06;12.57;;;2.55;;
57561;SDS011;43397;51.530;5.974;2023-03-14T12:34:38;11.85;;;2.30;;
57561;SDS011;43397;51.530;5.974;2023-03-14T12:37:24;13.60;;;3.22;;
57561;SDS011;43397;51.530;5.974;2023-03-14T12:39:56;12.60;;;2.40;;
57561;SDS011;43397;51.530;5.974;2023-03-14T12:42:37;14.45;;;2.70;;
57561;SDS011;43397;51.530;5.974;2023-03-14T12:45:21;16.52;;;3.80;;
57561;SDS011;43397;51.530;5.974;2023-03-14T12:47:52;18.42;;;4.45;;
57561;SDS011;43397;51.530;5.974;2023-03-14T12:53:42;19.80;;;3.42;;
57561;SDS011;43397;51.530;5.974;2023-03-14T12:56:39;17.08;;;2.70;;
57561;SDS011;43397;51.530;5.974;2023-03-14T12:59:14;12.30;;;3.05;;
57561;SDS011;43397;51.530;5.974;2023-03-14T13:01:59;12.60;;;3.45;;
57561;SDS011;43397;51.530;5.974;2023-03-14T13:04:27;11.50;;;2.25;;
57561;SDS011;43397;51.530;5.974;2023-03-14T13:06:56;13.57;;;2.90;;
57561;SDS011;43397;51.530;5.974;2023-03-14T13:14:50;10.23;;;2.08;;
57561;SDS011;43397;51.530;5.974;2023-03-14T13:17:22;11.85;;;2.83;;
57561;SDS011;43397;51.530;5.974;2023-03-14T13:19:51;11.65;;;3.20;;
57561;SDS011;43397;51.530;5.974;2023-03-14T13:22:22;10.57;;;2.83;;
57561;SDS011;43397;51.530;5.974;2023-03-14T13:24:57;8.10;;;1.90;;
57561;SDS011;43397;51.530;5.974;2023-03-14T13:27:24;7.63;;;1.83;;
57561;SDS011;43397;51.530;5.974;2023-03-14T13:29:50;10.27;;;1.90;;
57561;SDS011;43397;51.530;5.974;2023-03-14T13:32:17;9.50;;;3.25;;
57561;SDS011;43397;51.530;5.974;2023-03-14T13:34:47;7.63;;;1.90;;
57561;SDS011;43397;51.530;5.974;2023-03-14T13:37:15;7.53;;;2.33;;
57561;SDS011;43397;51.530;5.974;2023-03-14T13:39:41;6.93;;;1.73;;
57561;SDS011;43397;51.530;5.974;2023-03-14T13:42:10;8.20;;;2.42;;
57561;SDS011;43397;51.530;5.974;2023-03-14T13:44:40;8.55;;;1.98;;
57561;SDS011;43397;51.530;5.974;2023-03-14T13:47:09;12.70;;;1.80;;
57561;SDS011;43397;51.530;5.974;2023-03-14T13:49:39;10.50;;;1.90;;
57561;SDS011;43397;51.530;5.974;2023-03-14T13:52:20;8.25;;;2.38;;
57561;SDS011;43397;51.530;5.974;2023-03-14T13:54:47;8.70;;;1.55;;
57561;SDS011;43397;51.530;5.974;2023-03-14T13:57:13;9.95;;;2.10;;
57561;SDS011;43397;51.530;5.974;2023-03-14T13:59:38;10.55;;;2.47;;
57561;SDS011;43397;51.530;5.974;2023-03-14T14:02:04;9.20;;;2.22;;
57561;SDS011;43397;51.530;5.974;2023-03-14T14:04:39;9.85;;;1.95;;
57561;SDS011;43397;51.530;5.974;2023-03-14T14:07:06;7.10;;;1.50;;
57561;SDS011;43397;51.530;5.974;2023-03-14T14:09:35;7.43;;;1.80;;
57561;SDS011;43397;51.530;5.974;2023-03-14T14:14:31;9.18;;;2.20;;
57561;SDS011;43397;51.530;5.974;2023-03-14T14:16:59;6.90;;;1.45;;
57561;SDS011;43397;51.530;5.974;2023-03-14T14:19:27;10.13;;;2.05;;
57561;SDS011;43397;51.530;5.974;2023-03-14T14:21:56;8.98;;;2.08;;
57561;SDS011;43397;51.530;5.974;2023-03-14T14:24:23;9.32;;;2.30;;
57561;SDS011;43397;51.530;5.974;2023-03-14T14:26:53;9.63;;;2.40;;
57561;SDS011;43397;51.530;5.974;2023-03-14T14:29:25;7.43;;;1.90;;
57561;SDS011;43397;51.530;5.974;2023-03-14T14:31:59;6.28;;;1.52;;
57561;SDS011;43397;51.530;5.974;2023-03-14T14:34:26;8.75;;;1.98;;
57561;SDS011;43397;51.530;5.974;2023-03-14T14:36:51;7.07;;;1.50;;
57561;SDS011;43397;51.530;5.974;2023-03-14T14:39:19;9.95;;;2.15;;
57561;SDS011;43397;51.530;5.974;2023-03-14T14:41:47;4.72;;;1.30;;
57561;SDS011;43397;51.530;5.974;2023-03-14T14:44:16;5.70;;;1.40;;
57561;SDS011;43397;51.530;5.974;2023-03-14T14:46:44;3.85;;;1.20;;
57561;SDS011;43397;51.530;5.974;2023-03-14T14:49:11;9.20;;;1.52;;
57561;SDS011;43397;51.530;5.974;2023-03-14T14:51:40;6.03;;;1.60;;
57561;SDS011;43397;51.530;5.974;2023-03-14T14:54:11;7.55;;;1.70;;
57561;SDS011;43397;51.530;5.974;2023-03-14T14:56:45;7.38;;;1.55;;
57561;SDS011;43397;51.530;5.974;2023-03-14T14:59:22;5.65;;;1.42;;
57561;SDS011;43397;51.530;5.974;2023-03-14T15:01:49;8.25;;;2.08;;
57561;SDS011;43397;51.530;5.974;2023-03-14T15:04:20;5.00;;;1.35;;